sensor_id;sensor_type;location;lat;lon;timestamp;P1;durP1;ratioP1;P2;durP2;ratioP2
6842;SDS011;3460;52.028;8.916;2023-04-25T00:01:54;13.87;;;5.17;;
6842;SDS011;3460;52.028;8.916;2023-04-25T00:04:21;9.90;;;5.00;;
6842;SDS011;3460;52.028;8.916;2023-04-25T00:06:48;12.83;;;4.90;;
6842;SDS011;3460;52.028;8.916;2023-04-25T00:09:15;11.10;;;4.73;;
6842;SDS011;3460;52.028;8.916;2023-04-25T00:11:42;15.23;;;6.03;;
6842;SDS011;3460;52.028;8.916;2023-04-25T00:14:08;14.37;;;5.20;;
6842;SDS011;3460;52.028;8.916;2023-04-25T00:16:37;13.47;;;6.00;;
6842;SDS011;3460;52.028;8.916;2023-04-25T00:19:04;10.03;;;4.90;;
6842;SDS011;3460;52.028;8.916;2023-04-25T00:21:31;14.00;;;5.10;;
6842;SDS011;3460;52.028;8.916;2023-04-25T00:23:58;16.17;;;5.33;;
6842;SDS011;3460;52.028;8.916;2023-04-25T00:26:25;12.03;;;4.70;;
6842;SDS011;3460;52.028;8.916;2023-04-25T00:28:52;12.23;;;4.27;;
6842;SDS011;3460;52.028;8.916;2023-04-25T00:31:18;13.33;;;5.57;;
6842;SDS011;3460;52.028;8.916;2023-04-25T00:33:47;16.93;;;5.07;;
6842;SDS011;3460;52.028;8.916;2023-04-25T00:36:14;15.53;;;5.07;;
6842;SDS011;3460;52.028;8.916;2023-04-25T00:38:42;12.07;;;5.40;;
6842;SDS011;3460;52.028;8.916;2023-04-25T00:41:08;13.87;;;5.23;;
6842;SDS011;3460;52.028;8.916;2023-04-25T00:43:36;11.40;;;5.63;;
6842;SDS011;3460;52.028;8.916;2023-04-25T00:46:03;10.97;;;5.13;;
6842;SDS011;3460;52.028;8.916;2023-04-25T00:48:30;12.10;;;5.13;;
6842;SDS011;3460;52.028;8.916;2023-04-25T00:50:58;15.73;;;4.90;;
6842;SDS011;3460;52.028;8.916;2023-04-25T00:53:26;14.50;;;5.37;;
6842;SDS011;3460;52.028;8.916;2023-04-25T00:55:54;14.43;;;5.70;;
6842;SDS011;3460;52.028;8.916;2023-04-25T00:58:21;9.33;;;5.23;;
6842;SDS011;3460;52.028;8.916;2023-04-25T01:00:49;12.83;;;4.93;;
6842;SDS011;3460;52.028;8.916;2023-04-25T01:03:17;8.87;;;4.83;;
6842;SDS011;3460;52.028;8.916;2023-04-25T01:05:46;9.20;;;4.40;;
6842;SDS011;3460;52.028;8.916;2023-04-25T01:08:14;10.73;;;5.27;;
6842;SDS011;3460;52.028;8.916;2023-04-25T01:10:41;11.43;;;5.13;;
6842;SDS011;3460;52.028;8.916;2023-04-25T01:13:08;10.27;;;4.80;;
6842;SDS011;3460;52.028;8.916;2023-04-25T01:15:35;11.33;;;5.30;;
6842;SDS011;3460;52.028;8.916;2023-04-25T01:18:02;14.03;;;5.30;;
6842;SDS011;3460;52.028;8.916;2023-04-25T01:20:29;12.03;;;5.33;;
6842;SDS011;3460;52.028;8.916;2023-04-25T01:23:00;15.63;;;6.33;;
6842;SDS011;3460;52.028;8.916;2023-04-25T01:25:28;10.60;;;5.60;;
6842;SDS011;3460;52.028;8.916;2023-04-25T01:27:55;15.90;;;6.13;;
6842;SDS011;3460;52.028;8.916;2023-04-25T01:30:23;17.40;;;6.07;;
6842;SDS011;3460;52.028;8.916;2023-04-25T01:32:51;14.43;;;5.63;;
6842;SDS011;3460;52.028;8.916;2023-04-25T01:35:20;11.93;;;6.23;;
6842;SDS011;3460;52.028;8.916;2023-04-25T01:37:49;11.90;;;6.37;;
6842;SDS011;3460;52.028;8.916;2023-04-25T01:40:18;18.17;;;6.97;;
6842;SDS011;3460;52.028;8.916;2023-04-25T01:42:47;14.97;;;6.13;;
6842;SDS011;3460;52.028;8.916;2023-04-25T01:45:14;14.77;;;6.00;;
6842;SDS011;3460;52.028;8.916;2023-04-25T01:47:41;16.57;;;6.33;;
6842;SDS011;3460;52.028;8.916;2023-04-25T01:50:11;16.13;;;6.37;;
6842;SDS011;3460;52.028;8.916;2023-04-25T01:52:39;15.80;;;6.57;;
6842;SDS011;3460;52.028;8.916;2023-04-25T01:55:06;15.23;;;7.07;;
6842;SDS011;3460;52.028;8.916;2023-04-25T01:57:34;14.53;;;6.50;;
6842;SDS011;3460;52.028;8.916;2023-04-25T02:00:02;18.40;;;6.70;;
6842;SDS011;3460;52.028;8.916;2023-04-25T02:02:31;13.87;;;6.27;;
6842;SDS011;3460;52.028;8.916;2023-04-25T02:04:57;14.23;;;7.13;;
6842;SDS011;3460;52.028;8.916;2023-04-25T02:07:25;15.53;;;6.37;;
6842;SDS011;3460;52.028;8.916;2023-04-25T02:09:52;13.83;;;6.33;;
6842;SDS011;3460;52.028;8.916;2023-04-25T02:12:19;15.13;;;6.07;;
6842;SDS011;3460;52.028;8.916;2023-04-25T02:14:47;13.33;;;6.23;;
6842;SDS011;3460;52.028;8.916;2023-04-25T02:17:14;14.40;;;6.77;;
6842;SDS011;3460;52.028;8.916;2023-04-25T02:19:41;12.80;;;6.30;;
6842;SDS011;3460;52.028;8.916;2023-04-25T02:22:07;19.97;;;7.60;;
6842;SDS011;3460;52.028;8.916;2023-04-25T02:24:35;15.87;;;6.33;;
6842;SDS011;3460;52.028;8.916;2023-04-25T02:27:02;12.17;;;6.40;;
6842;SDS011;3460;52.028;8.916;2023-04-25T02:29:29;14.13;;;6.43;;
6842;SDS011;3460;52.028;8.916;2023-04-25T02:31:57;14.67;;;6.10;;
6842;SDS011;3460;52.028;8.916;2023-04-25T02:34:24;11.67;;;5.73;;
6842;SDS011;3460;52.028;8.916;2023-04-25T02:36:51;12.47;;;6.20;;
6842;SDS011;3460;52.028;8.916;2023-04-25T02:39:17;12.03;;;5.27;;
6842;SDS011;3460;52.028;8.916;2023-04-25T02:41:44;14.13;;;5.87;;
6842;SDS011;3460;52.028;8.916;2023-04-25T02:44:11;12.10;;;5.77;;
6842;SDS011;3460;52.028;8.916;2023-04-25T02:46:38;13.73;;;5.80;;
6842;SDS011;3460;52.028;8.916;2023-04-25T02:49:06;10.33;;;5.10;;
6842;SDS011;3460;52.028;8.916;2023-04-25T02:51:33;10.87;;;4.93;;
6842;SDS011;3460;52.028;8.916;2023-04-25T02:54:00;11.63;;;4.97;;
6842;SDS011;3460;52.028;8.916;2023-04-25T02:56:28;9.33;;;4.90;;
6842;SDS011;3460;52.028;8.916;2023-04-25T02:58:54;9.47;;;4.97;;
6842;SDS011;3460;52.028;8.916;2023-04-25T03:01:21;10.27;;;4.77;;
6842;SDS011;3460;52.028;8.916;2023-04-25T03:03:48;12.27;;;4.20;;
6842;SDS011;3460;52.028;8.916;2023-04-25T03:06:16;8.53;;;4.10;;
6842;SDS011;3460;52.028;8.916;2023-04-25T03:08:43;9.87;;;4.47;;
6842;SDS011;3460;52.028;8.916;2023-04-25T03:11:10;10.30;;;4.67;;
6842;SDS011;3460;52.028;8.916;2023-04-25T03:13:37;13.17;;;4.00;;
6842;SDS011;3460;52.028;8.916;2023-04-25T03:16:04;14.33;;;4.27;;
6842;SDS011;3460;52.028;8.916;2023-04-25T03:18:31;7.97;;;3.63;;
6842;SDS011;3460;52.028;8.916;2023-04-25T03:20:58;12.43;;;4.47;;
6842;SDS011;3460;52.028;8.916;2023-04-25T03:23:26;7.87;;;3.50;;
6842;SDS011;3460;52.028;8.916;2023-04-25T03:25:53;13.53;;;3.60;;
6842;SDS011;3460;52.028;8.916;2023-04-25T03:28:19;15.67;;;4.27;;
6842;SDS011;3460;52.028;8.916;2023-04-25T03:30:46;17.63;;;4.67;;
6842;SDS011;3460;52.028;8.916;2023-04-25T03:33:13;17.73;;;4.07;;
6842;SDS011;3460;52.028;8.916;2023-04-25T03:35:40;15.27;;;4.30;;
6842;SDS011;3460;52.028;8.916;2023-04-25T03:38:07;19.00;;;4.20;;
6842;SDS011;3460;52.028;8.916;2023-04-25T03:40:35;13.90;;;4.27;;
6842;SDS011;3460;52.028;8.916;2023-04-25T03:43:02;14.57;;;4.53;;
6842;SDS011;3460;52.028;8.916;2023-04-25T03:45:29;16.77;;;4.40;;
6842;SDS011;3460;52.028;8.916;2023-04-25T03:47:56;21.33;;;4.80;;
6842;SDS011;3460;52.028;8.916;2023-04-25T03:50:22;20.00;;;4.50;;
6842;SDS011;3460;52.028;8.916;2023-04-25T03:52:49;14.63;;;3.73;;
6842;SDS011;3460;52.028;8.916;2023-04-25T03:55:16;16.90;;;4.57;;
6842;SDS011;3460;52.028;8.916;2023-04-25T03:57:44;16.30;;;4.50;;
6842;SDS011;3460;52.028;8.916;2023-04-25T04:00:12;15.93;;;3.87;;
6842;SDS011;3460;52.028;8.916;2023-04-25T04:02:39;18.77;;;4.37;;
6842;SDS011;3460;52.028;8.916;2023-04-25T04:05:06;14.70;;;4.50;;
6842;SDS011;3460;52.028;8.916;2023-04-25T04:07:34;15.03;;;4.60;;
6842;SDS011;3460;52.028;8.916;2023-04-25T04:10:05;15.53;;;4.43;;
6842;SDS011;3460;52.028;8.916;2023-04-25T04:12:32;19.93;;;4.77;;
6842;SDS011;3460;52.028;8.916;2023-04-25T04:15:00;17.20;;;4.50;;
6842;SDS011;3460;52.028;8.916;2023-04-25T04:17:28;19.10;;;5.27;;
6842;SDS011;3460;52.028;8.916;2023-04-25T04:19:54;16.53;;;4.30;;
6842;SDS011;3460;52.028;8.916;2023-04-25T04:22:21;17.17;;;4.17;;
6842;SDS011;3460;52.028;8.916;2023-04-25T04:24:49;20.17;;;4.13;;
6842;SDS011;3460;52.028;8.916;2023-04-25T04:27:16;16.30;;;4.57;;
6842;SDS011;3460;52.028;8.916;2023-04-25T04:29:44;15.70;;;4.27;;
6842;SDS011;3460;52.028;8.916;2023-04-25T04:32:12;22.90;;;4.90;;
6842;SDS011;3460;52.028;8.916;2023-04-25T04:34:39;14.93;;;4.43;;
6842;SDS011;3460;52.028;8.916;2023-04-25T04:37:06;15.60;;;5.00;;
6842;SDS011;3460;52.028;8.916;2023-04-25T04:39:34;12.33;;;4.17;;
6842;SDS011;3460;52.028;8.916;2023-04-25T04:42:02;14.83;;;4.87;;
6842;SDS011;3460;52.028;8.916;2023-04-25T04:44:30;15.47;;;4.60;;
6842;SDS011;3460;52.028;8.916;2023-04-25T04:46:57;17.87;;;4.70;;
6842;SDS011;3460;52.028;8.916;2023-04-25T04:49:25;14.47;;;3.93;;
6842;SDS011;3460;52.028;8.916;2023-04-25T04:51:52;20.90;;;4.37;;
6842;SDS011;3460;52.028;8.916;2023-04-25T04:54:20;13.70;;;3.87;;
6842;SDS011;3460;52.028;8.916;2023-04-25T04:56:47;18.17;;;4.33;;
6842;SDS011;3460;52.028;8.916;2023-04-25T04:59:13;20.60;;;4.50;;
6842;SDS011;3460;52.028;8.916;2023-04-25T05:01:40;15.37;;;3.87;;
6842;SDS011;3460;52.028;8.916;2023-04-25T05:04:07;14.47;;;3.67;;
6842;SDS011;3460;52.028;8.916;2023-04-25T05:06:35;19.60;;;4.60;;
6842;SDS011;3460;52.028;8.916;2023-04-25T05:09:02;18.70;;;4.30;;
6842;SDS011;3460;52.028;8.916;2023-04-25T05:11:29;15.90;;;4.67;;
6842;SDS011;3460;52.028;8.916;2023-04-25T05:13:56;17.40;;;4.07;;
6842;SDS011;3460;52.028;8.916;2023-04-25T05:16:23;15.63;;;4.77;;
6842;SDS011;3460;52.028;8.916;2023-04-25T05:18:49;15.57;;;4.97;;
6842;SDS011;3460;52.028;8.916;2023-04-25T05:21:16;14.67;;;5.00;;
6842;SDS011;3460;52.028;8.916;2023-04-25T05:23:44;19.53;;;4.57;;
6842;SDS011;3460;52.028;8.916;2023-04-25T05:26:11;16.13;;;4.57;;
6842;SDS011;3460;52.028;8.916;2023-04-25T05:28:39;14.27;;;4.23;;
6842;SDS011;3460;52.028;8.916;2023-04-25T05:31:07;13.63;;;4.10;;
6842;SDS011;3460;52.028;8.916;2023-04-25T05:33:35;21.53;;;4.60;;
6842;SDS011;3460;52.028;8.916;2023-04-25T05:36:02;15.77;;;5.00;;
6842;SDS011;3460;52.028;8.916;2023-04-25T05:38:29;16.13;;;4.67;;
6842;SDS011;3460;52.028;8.916;2023-04-25T05:40:57;17.70;;;4.67;;
6842;SDS011;3460;52.028;8.916;2023-04-25T05:43:24;17.70;;;4.73;;
6842;SDS011;3460;52.028;8.916;2023-04-25T05:45:51;20.03;;;5.13;;
6842;SDS011;3460;52.028;8.916;2023-04-25T05:48:17;15.83;;;4.80;;
6842;SDS011;3460;52.028;8.916;2023-04-25T05:50:44;21.53;;;4.77;;
6842;SDS011;3460;52.028;8.916;2023-04-25T05:53:11;19.27;;;6.83;;
6842;SDS011;3460;52.028;8.916;2023-04-25T05:55:38;13.57;;;5.07;;
6842;SDS011;3460;52.028;8.916;2023-04-25T05:58:06;24.40;;;5.03;;
6842;SDS011;3460;52.028;8.916;2023-04-25T06:00:33;19.10;;;6.03;;
6842;SDS011;3460;52.028;8.916;2023-04-25T06:02:59;19.40;;;5.57;;
6842;SDS011;3460;52.028;8.916;2023-04-25T06:05:27;20.83;;;4.67;;
6842;SDS011;3460;52.028;8.916;2023-04-25T06:07:54;24.73;;;5.00;;
6842;SDS011;3460;52.028;8.916;2023-04-25T06:10:20;19.00;;;5.10;;
6842;SDS011;3460;52.028;8.916;2023-04-25T06:12:47;21.80;;;4.47;;
6842;SDS011;3460;52.028;8.916;2023-04-25T06:15:16;17.90;;;4.77;;
6842;SDS011;3460;52.028;8.916;2023-04-25T06:17:43;17.70;;;4.30;;
6842;SDS011;3460;52.028;8.916;2023-04-25T06:20:10;14.20;;;4.27;;
6842;SDS011;3460;52.028;8.916;2023-04-25T06:22:37;19.60;;;4.90;;
6842;SDS011;3460;52.028;8.916;2023-04-25T06:25:04;18.37;;;5.13;;
6842;SDS011;3460;52.028;8.916;2023-04-25T06:27:32;19.07;;;4.27;;
6842;SDS011;3460;52.028;8.916;2023-04-25T06:29:59;22.10;;;8.40;;
6842;SDS011;3460;52.028;8.916;2023-04-25T06:32:27;13.07;;;4.07;;
6842;SDS011;3460;52.028;8.916;2023-04-25T06:34:55;16.70;;;4.77;;
6842;SDS011;3460;52.028;8.916;2023-04-25T06:37:21;18.03;;;4.20;;
6842;SDS011;3460;52.028;8.916;2023-04-25T06:39:48;19.60;;;4.53;;
6842;SDS011;3460;52.028;8.916;2023-04-25T06:42:15;17.53;;;4.03;;
6842;SDS011;3460;52.028;8.916;2023-04-25T06:44:42;14.53;;;4.10;;
6842;SDS011;3460;52.028;8.916;2023-04-25T06:47:09;12.13;;;4.27;;
6842;SDS011;3460;52.028;8.916;2023-04-25T06:49:37;17.63;;;4.47;;
6842;SDS011;3460;52.028;8.916;2023-04-25T06:52:04;16.73;;;4.10;;
6842;SDS011;3460;52.028;8.916;2023-04-25T06:54:30;11.73;;;3.67;;
6842;SDS011;3460;52.028;8.916;2023-04-25T06:56:57;14.97;;;4.50;;
6842;SDS011;3460;52.028;8.916;2023-04-25T06:59:25;15.07;;;3.63;;
6842;SDS011;3460;52.028;8.916;2023-04-25T07:01:52;15.07;;;4.57;;
6842;SDS011;3460;52.028;8.916;2023-04-25T07:04:19;15.80;;;4.10;;
6842;SDS011;3460;52.028;8.916;2023-04-25T07:06:47;16.20;;;4.63;;
6842;SDS011;3460;52.028;8.916;2023-04-25T07:09:14;16.17;;;3.90;;
6842;SDS011;3460;52.028;8.916;2023-04-25T07:11:41;12.43;;;3.87;;
6842;SDS011;3460;52.028;8.916;2023-04-25T07:14:08;18.43;;;3.93;;
6842;SDS011;3460;52.028;8.916;2023-04-25T07:16:35;19.97;;;5.43;;
6842;SDS011;3460;52.028;8.916;2023-04-25T07:19:02;21.23;;;4.70;;
6842;SDS011;3460;52.028;8.916;2023-04-25T07:21:28;17.17;;;4.10;;
6842;SDS011;3460;52.028;8.916;2023-04-25T07:23:58;18.27;;;3.97;;
6842;SDS011;3460;52.028;8.916;2023-04-25T07:26:25;16.73;;;3.73;;
6842;SDS011;3460;52.028;8.916;2023-04-25T07:28:51;11.03;;;3.50;;
6842;SDS011;3460;52.028;8.916;2023-04-25T07:31:19;13.63;;;4.00;;
6842;SDS011;3460;52.028;8.916;2023-04-25T07:33:46;16.87;;;3.80;;
6842;SDS011;3460;52.028;8.916;2023-04-25T07:36:13;16.80;;;3.70;;
6842;SDS011;3460;52.028;8.916;2023-04-25T07:38:41;10.47;;;3.40;;
6842;SDS011;3460;52.028;8.916;2023-04-25T07:41:09;10.80;;;3.30;;
6842;SDS011;3460;52.028;8.916;2023-04-25T07:43:36;10.13;;;4.10;;
6842;SDS011;3460;52.028;8.916;2023-04-25T07:46:03;18.07;;;3.97;;
6842;SDS011;3460;52.028;8.916;2023-04-25T07:48:31;14.83;;;3.67;;
6842;SDS011;3460;52.028;8.916;2023-04-25T07:50:58;14.27;;;3.50;;
6842;SDS011;3460;52.028;8.916;2023-04-25T07:53:25;11.70;;;2.93;;
6842;SDS011;3460;52.028;8.916;2023-04-25T07:55:51;12.50;;;3.13;;
6842;SDS011;3460;52.028;8.916;2023-04-25T07:58:19;14.57;;;4.00;;
6842;SDS011;3460;52.028;8.916;2023-04-25T08:00:47;16.83;;;3.50;;
6842;SDS011;3460;52.028;8.916;2023-04-25T08:03:14;13.80;;;3.53;;
6842;SDS011;3460;52.028;8.916;2023-04-25T08:05:40;16.23;;;3.50;;
6842;SDS011;3460;52.028;8.916;2023-04-25T08:08:07;14.40;;;3.13;;
6842;SDS011;3460;52.028;8.916;2023-04-25T08:10:34;12.13;;;3.70;;
6842;SDS011;3460;52.028;8.916;2023-04-25T08:13:01;10.53;;;2.53;;
6842;SDS011;3460;52.028;8.916;2023-04-25T08:15:29;14.03;;;3.27;;
6842;SDS011;3460;52.028;8.916;2023-04-25T08:17:56;13.23;;;2.90;;
6842;SDS011;3460;52.028;8.916;2023-04-25T08:20:24;14.77;;;3.00;;
6842;SDS011;3460;52.028;8.916;2023-04-25T08:22:51;10.53;;;3.13;;
6842;SDS011;3460;52.028;8.916;2023-04-25T08:25:18;11.53;;;2.97;;
6842;SDS011;3460;52.028;8.916;2023-04-25T08:27:45;9.60;;;2.37;;
6842;SDS011;3460;52.028;8.916;2023-04-25T08:30:12;11.57;;;2.53;;
6842;SDS011;3460;52.028;8.916;2023-04-25T08:32:40;10.37;;;2.87;;
6842;SDS011;3460;52.028;8.916;2023-04-25T08:35:07;13.20;;;2.63;;
6842;SDS011;3460;52.028;8.916;2023-04-25T08:37:35;11.83;;;2.60;;
6842;SDS011;3460;52.028;8.916;2023-04-25T08:40:03;12.37;;;2.63;;
6842;SDS011;3460;52.028;8.916;2023-04-25T08:42:32;9.43;;;2.60;;
6842;SDS011;3460;52.028;8.916;2023-04-25T08:45:00;9.60;;;2.93;;
6842;SDS011;3460;52.028;8.916;2023-04-25T08:47:28;6.90;;;2.23;;
6842;SDS011;3460;52.028;8.916;2023-04-25T08:50:00;7.47;;;2.20;;
6842;SDS011;3460;52.028;8.916;2023-04-25T08:52:30;8.17;;;2.43;;
6842;SDS011;3460;52.028;8.916;2023-04-25T08:55:02;9.10;;;2.60;;
6842;SDS011;3460;52.028;8.916;2023-04-25T08:57:29;7.60;;;2.30;;
6842;SDS011;3460;52.028;8.916;2023-04-25T08:59:59;8.23;;;2.23;;
6842;SDS011;3460;52.028;8.916;2023-04-25T09:02:28;8.93;;;2.17;;
6842;SDS011;3460;52.028;8.916;2023-04-25T09:04:55;12.93;;;2.33;;
6842;SDS011;3460;52.028;8.916;2023-04-25T09:07:23;9.47;;;2.30;;
6842;SDS011;3460;52.028;8.916;2023-04-25T09:09:50;7.97;;;2.20;;
6842;SDS011;3460;52.028;8.916;2023-04-25T09:12:17;9.20;;;2.80;;
6842;SDS011;3460;52.028;8.916;2023-04-25T09:14:46;9.70;;;2.47;;
6842;SDS011;3460;52.028;8.916;2023-04-25T09:17:29;9.73;;;2.17;;
6842;SDS011;3460;52.028;8.916;2023-04-25T09:19:55;11.33;;;2.33;;
6842;SDS011;3460;52.028;8.916;2023-04-25T09:22:33;7.10;;;2.20;;
6842;SDS011;3460;52.028;8.916;2023-04-25T09:25:02;13.70;;;2.20;;
6842;SDS011;3460;52.028;8.916;2023-04-25T09:27:30;9.20;;;2.10;;
6842;SDS011;3460;52.028;8.916;2023-04-25T09:29:57;8.60;;;2.17;;
6842;SDS011;3460;52.028;8.916;2023-04-25T09:32:25;15.83;;;2.47;;
6842;SDS011;3460;52.028;8.916;2023-04-25T09:34:53;5.90;;;2.23;;
6842;SDS011;3460;52.028;8.916;2023-04-25T09:37:21;7.63;;;2.20;;
6842;SDS011;3460;52.028;8.916;2023-04-25T09:39:52;5.97;;;1.90;;
6842;SDS011;3460;52.028;8.916;2023-04-25T09:42:21;6.80;;;2.33;;
6842;SDS011;3460;52.028;8.916;2023-04-25T09:44:49;9.60;;;2.53;;
6842;SDS011;3460;52.028;8.916;2023-04-25T09:47:18;9.43;;;2.20;;
6842;SDS011;3460;52.028;8.916;2023-04-25T09:49:48;10.70;;;2.37;;
6842;SDS011;3460;52.028;8.916;2023-04-25T09:52:16;10.67;;;2.70;;
6842;SDS011;3460;52.028;8.916;2023-04-25T09:54:44;7.40;;;2.40;;
6842;SDS011;3460;52.028;8.916;2023-04-25T09:57:12;12.23;;;2.50;;
6842;SDS011;3460;52.028;8.916;2023-04-25T09:59:44;10.77;;;2.73;;
6842;SDS011;3460;52.028;8.916;2023-04-25T10:02:13;9.20;;;2.80;;
6842;SDS011;3460;52.028;8.916;2023-04-25T10:04:41;14.00;;;2.90;;
6842;SDS011;3460;52.028;8.916;2023-04-25T10:07:10;5.40;;;2.40;;
6842;SDS011;3460;52.028;8.916;2023-04-25T10:09:38;7.50;;;2.60;;
6842;SDS011;3460;52.028;8.916;2023-04-25T10:12:06;8.03;;;2.50;;
6842;SDS011;3460;52.028;8.916;2023-04-25T10:14:34;6.30;;;1.90;;
6842;SDS011;3460;52.028;8.916;2023-04-25T10:17:02;6.67;;;2.13;;
6842;SDS011;3460;52.028;8.916;2023-04-25T10:19:29;9.20;;;2.67;;
6842;SDS011;3460;52.028;8.916;2023-04-25T10:22:00;6.43;;;1.87;;
6842;SDS011;3460;52.028;8.916;2023-04-25T10:24:32;9.87;;;2.23;;
6842;SDS011;3460;52.028;8.916;2023-04-25T10:26:59;7.00;;;2.00;;
6842;SDS011;3460;52.028;8.916;2023-04-25T10:29:26;10.43;;;2.10;;
6842;SDS011;3460;52.028;8.916;2023-04-25T10:31:55;11.17;;;2.20;;
6842;SDS011;3460;52.028;8.916;2023-04-25T10:34:37;8.43;;;2.27;;
6842;SDS011;3460;52.028;8.916;2023-04-25T10:37:04;6.23;;;2.00;;
6842;SDS011;3460;52.028;8.916;2023-04-25T10:39:34;5.77;;;1.63;;
6842;SDS011;3460;52.028;8.916;2023-04-25T10:42:01;7.57;;;1.57;;
6842;SDS011;3460;52.028;8.916;2023-04-25T10:44:29;9.83;;;1.93;;
6842;SDS011;3460;52.028;8.916;2023-04-25T10:46:58;7.60;;;1.80;;
6842;SDS011;3460;52.028;8.916;2023-04-25T10:49:29;4.93;;;2.00;;
6842;SDS011;3460;52.028;8.916;2023-04-25T10:52:11;7.77;;;1.93;;
6842;SDS011;3460;52.028;8.916;2023-04-25T10:54:42;7.20;;;1.73;;
6842;SDS011;3460;52.028;8.916;2023-04-25T10:59:57;10.37;;;1.80;;
6842;SDS011;3460;52.028;8.916;2023-04-25T11:02:27;11.27;;;2.10;;
6842;SDS011;3460;52.028;8.916;2023-04-25T11:04:54;7.83;;;1.93;;
6842;SDS011;3460;52.028;8.916;2023-04-25T11:07:23;7.10;;;1.97;;
6842;SDS011;3460;52.028;8.916;2023-04-25T11:10:00;6.43;;;1.77;;
6842;SDS011;3460;52.028;8.916;2023-04-25T11:12:29;4.57;;;1.50;;
6842;SDS011;3460;52.028;8.916;2023-04-25T11:15:00;6.60;;;1.70;;
6842;SDS011;3460;52.028;8.916;2023-04-25T11:17:29;5.27;;;1.83;;
6842;SDS011;3460;52.028;8.916;2023-04-25T11:19:56;9.37;;;1.90;;
6842;SDS011;3460;52.028;8.916;2023-04-25T11:22:23;4.47;;;1.73;;
6842;SDS011;3460;52.028;8.916;2023-04-25T11:24:50;5.53;;;1.93;;
6842;SDS011;3460;52.028;8.916;2023-04-25T11:27:17;8.43;;;1.93;;
6842;SDS011;3460;52.028;8.916;2023-04-25T11:29:44;5.27;;;1.70;;
6842;SDS011;3460;52.028;8.916;2023-04-25T11:32:12;6.03;;;1.53;;
6842;SDS011;3460;52.028;8.916;2023-04-25T11:34:42;5.67;;;1.60;;
6842;SDS011;3460;52.028;8.916;2023-04-25T11:37:11;4.37;;;1.73;;
6842;SDS011;3460;52.028;8.916;2023-04-25T11:39:39;5.17;;;1.50;;
6842;SDS011;3460;52.028;8.916;2023-04-25T11:42:10;7.37;;;2.10;;
6842;SDS011;3460;52.028;8.916;2023-04-25T11:44:37;6.37;;;1.90;;
6842;SDS011;3460;52.028;8.916;2023-04-25T11:47:05;6.07;;;1.70;;
6842;SDS011;3460;52.028;8.916;2023-04-25T11:49:32;5.93;;;1.90;;
6842;SDS011;3460;52.028;8.916;2023-04-25T11:52:01;6.27;;;1.70;;
6842;SDS011;3460;52.028;8.916;2023-04-25T11:54:28;5.77;;;1.70;;
6842;SDS011;3460;52.028;8.916;2023-04-25T11:56:55;4.00;;;1.60;;
6842;SDS011;3460;52.028;8.916;2023-04-25T11:59:23;5.63;;;1.50;;
6842;SDS011;3460;52.028;8.916;2023-04-25T12:01:51;5.47;;;1.60;;
6842;SDS011;3460;52.028;8.916;2023-04-25T12:04:19;5.47;;;1.50;;
6842;SDS011;3460;52.028;8.916;2023-04-25T12:06:47;5.17;;;1.60;;
6842;SDS011;3460;52.028;8.916;2023-04-25T12:09:17;6.53;;;1.63;;
6842;SDS011;3460;52.028;8.916;2023-04-25T12:11:46;5.93;;;1.93;;
6842;SDS011;3460;52.028;8.916;2023-04-25T12:14:20;6.10;;;1.77;;
6842;SDS011;3460;52.028;8.916;2023-04-25T12:16:49;7.37;;;1.80;;
6842;SDS011;3460;52.028;8.916;2023-04-25T12:19:17;4.17;;;1.30;;
6842;SDS011;3460;52.028;8.916;2023-04-25T12:21:45;6.60;;;1.80;;
6842;SDS011;3460;52.028;8.916;2023-04-25T12:24:13;5.47;;;1.57;;
6842;SDS011;3460;52.028;8.916;2023-04-25T12:26:49;7.00;;;1.70;;
6842;SDS011;3460;52.028;8.916;2023-04-25T12:29:20;3.60;;;1.57;;
6842;SDS011;3460;52.028;8.916;2023-04-25T12:31:49;3.80;;;1.47;;
6842;SDS011;3460;52.028;8.916;2023-04-25T12:34:17;5.03;;;1.90;;
6842;SDS011;3460;52.028;8.916;2023-04-25T12:36:44;6.10;;;2.00;;
6842;SDS011;3460;52.028;8.916;2023-04-25T12:39:14;3.03;;;1.40;;
6842;SDS011;3460;52.028;8.916;2023-04-25T12:41:41;5.23;;;1.53;;
6842;SDS011;3460;52.028;8.916;2023-04-25T12:44:10;5.10;;;1.87;;
6842;SDS011;3460;52.028;8.916;2023-04-25T12:46:37;6.03;;;1.70;;
6842;SDS011;3460;52.028;8.916;2023-04-25T12:49:04;4.83;;;1.50;;
6842;SDS011;3460;52.028;8.916;2023-04-25T12:51:32;3.83;;;1.80;;
6842;SDS011;3460;52.028;8.916;2023-04-25T12:53:59;4.67;;;1.57;;
6842;SDS011;3460;52.028;8.916;2023-04-25T12:56:26;4.57;;;1.63;;
6842;SDS011;3460;52.028;8.916;2023-04-25T12:58:53;5.30;;;1.57;;
6842;SDS011;3460;52.028;8.916;2023-04-25T13:01:21;9.43;;;4.10;;
6842;SDS011;3460;52.028;8.916;2023-04-25T13:03:48;7.13;;;2.20;;
6842;SDS011;3460;52.028;8.916;2023-04-25T13:06:15;8.67;;;2.13;;
6842;SDS011;3460;52.028;8.916;2023-04-25T13:08:43;7.37;;;1.90;;
6842;SDS011;3460;52.028;8.916;2023-04-25T13:11:10;8.07;;;2.17;;
6842;SDS011;3460;52.028;8.916;2023-04-25T13:13:37;8.80;;;2.10;;
6842;SDS011;3460;52.028;8.916;2023-04-25T13:16:05;7.17;;;1.70;;
6842;SDS011;3460;52.028;8.916;2023-04-25T13:18:34;4.47;;;1.60;;
6842;SDS011;3460;52.028;8.916;2023-04-25T13:21:02;6.50;;;2.17;;
6842;SDS011;3460;52.028;8.916;2023-04-25T13:23:29;11.23;;;2.27;;
6842;SDS011;3460;52.028;8.916;2023-04-25T13:25:56;9.63;;;2.13;;
6842;SDS011;3460;52.028;8.916;2023-04-25T13:28:24;5.90;;;1.70;;
6842;SDS011;3460;52.028;8.916;2023-04-25T13:30:51;5.00;;;1.70;;
6842;SDS011;3460;52.028;8.916;2023-04-25T13:33:17;4.47;;;1.60;;
6842;SDS011;3460;52.028;8.916;2023-04-25T13:35:46;4.83;;;1.80;;
6842;SDS011;3460;52.028;8.916;2023-04-25T13:38:18;5.10;;;1.70;;
6842;SDS011;3460;52.028;8.916;2023-04-25T13:40:46;8.27;;;1.60;;
6842;SDS011;3460;52.028;8.916;2023-04-25T13:43:13;6.60;;;3.57;;
6842;SDS011;3460;52.028;8.916;2023-04-25T13:45:40;6.27;;;1.90;;
6842;SDS011;3460;52.028;8.916;2023-04-25T13:48:07;4.80;;;1.80;;
6842;SDS011;3460;52.028;8.916;2023-04-25T13:50:33;7.47;;;2.00;;
6842;SDS011;3460;52.028;8.916;2023-04-25T13:53:02;6.70;;;2.50;;
6842;SDS011;3460;52.028;8.916;2023-04-25T13:55:28;5.70;;;1.73;;
6842;SDS011;3460;52.028;8.916;2023-04-25T13:57:56;3.73;;;1.40;;
6842;SDS011;3460;52.028;8.916;2023-04-25T14:00:22;4.20;;;1.50;;
6842;SDS011;3460;52.028;8.916;2023-04-25T14:02:49;4.17;;;1.43;;
6842;SDS011;3460;52.028;8.916;2023-04-25T14:05:16;3.23;;;1.20;;
6842;SDS011;3460;52.028;8.916;2023-04-25T14:07:43;2.87;;;1.40;;
6842;SDS011;3460;52.028;8.916;2023-04-25T14:10:12;2.60;;;1.10;;
6842;SDS011;3460;52.028;8.916;2023-04-25T14:12:39;2.03;;;1.23;;
6842;SDS011;3460;52.028;8.916;2023-04-25T14:15:06;2.57;;;1.20;;
6842;SDS011;3460;52.028;8.916;2023-04-25T14:17:33;2.90;;;1.20;;
6842;SDS011;3460;52.028;8.916;2023-04-25T14:20:00;2.63;;;1.07;;
6842;SDS011;3460;52.028;8.916;2023-04-25T14:22:26;2.43;;;1.07;;
6842;SDS011;3460;52.028;8.916;2023-04-25T14:24:53;3.97;;;1.20;;
6842;SDS011;3460;52.028;8.916;2023-04-25T14:27:21;5.13;;;1.20;;
6842;SDS011;3460;52.028;8.916;2023-04-25T14:29:48;4.77;;;1.07;;
6842;SDS011;3460;52.028;8.916;2023-04-25T14:32:15;3.27;;;1.33;;
6842;SDS011;3460;52.028;8.916;2023-04-25T14:34:42;5.00;;;1.60;;
6842;SDS011;3460;52.028;8.916;2023-04-25T14:37:09;2.70;;;1.13;;
6842;SDS011;3460;52.028;8.916;2023-04-25T14:39:35;32.40;;;18.90;;
6842;SDS011;3460;52.028;8.916;2023-04-25T14:42:03;3.03;;;1.50;;
6842;SDS011;3460;52.028;8.916;2023-04-25T14:44:31;1.90;;;1.30;;
6842;SDS011;3460;52.028;8.916;2023-04-25T14:46:58;5.57;;;1.60;;
6842;SDS011;3460;52.028;8.916;2023-04-25T14:49:24;2.40;;;1.20;;
6842;SDS011;3460;52.028;8.916;2023-04-25T14:51:53;3.57;;;1.30;;
6842;SDS011;3460;52.028;8.916;2023-04-25T14:54:20;3.37;;;1.40;;
6842;SDS011;3460;52.028;8.916;2023-04-25T14:56:46;3.43;;;1.30;;
6842;SDS011;3460;52.028;8.916;2023-04-25T14:59:13;4.17;;;1.23;;
6842;SDS011;3460;52.028;8.916;2023-04-25T15:01:41;5.23;;;1.50;;
6842;SDS011;3460;52.028;8.916;2023-04-25T15:04:08;3.53;;;1.60;;
6842;SDS011;3460;52.028;8.916;2023-04-25T15:06:37;4.07;;;1.40;;
6842;SDS011;3460;52.028;8.916;2023-04-25T15:09:04;4.80;;;1.43;;
6842;SDS011;3460;52.028;8.916;2023-04-25T15:11:31;3.53;;;1.47;;
6842;SDS011;3460;52.028;8.916;2023-04-25T15:13:58;2.43;;;1.40;;